<?xml version='1.0' encoding='utf-8'?>
<gpx xmlns="http://www.topografix.com/GPX/1/1" xmlns:gpxx="http://www.garmin.com/xmlschemas/GpxExtensions/v3" xmlns:xsi="http://www.w3.org/2001/XMLSchema-instance" creator="eTrex 30" version="1.1" xsi:schemaLocation="http://www.topografix.com/GPX/1/1 http://www.topografix.com/GPX/1/1/gpx.xsd http://www.garmin.com/xmlschemas/GpxExtensions/v3 http://www8.garmin.com/xmlschemas/GpxExtensionsv3.xsd http://www.garmin.com/xmlschemas/WaypointExtension/v1 http://www8.garmin.com/xmlschemas/WaypointExtensionv1.xsd http://www.garmin.com/xmlschemas/TrackPointExtension/v1 http://www.garmin.com/xmlschemas/TrackPointExtensionv1.xsd"><metadata><link href="http://www.garmin.com"><text>Garmin International</text></link><time>2015-11-27T16:16:03Z</time></metadata><trk><name>27-NOV-15 18:15:59</name><extensions><gpxx:TrackExtension><gpxx:DisplayColor>Cyan</gpxx:DisplayColor></gpxx:TrackExtension></extensions><trkseg><trkpt lat="29.6403090376" lon="35.4341783188"><ele>841.2</ele><time>2015-11-27T07:43:40Z</time></trkpt><trkpt lat="29.6404553019" lon="35.4339798354"><ele>836.7</ele><time>2015-11-27T07:46:07Z</time></trkpt><trkpt lat="29.6395318676" lon="35.4338994529"><ele>838.4</ele><time>2015-11-27T07:47:21Z</time></trkpt><trkpt lat="29.6227333602" lon="35.4273712076"><ele>855.6</ele><time>2015-11-27T07:56:48Z</time></trkpt><trkpt lat="29.6205580048" lon="35.4271105304"><ele>859.1</ele><time>2015-11-27T07:57:28Z</time></trkpt><trkpt lat="29.6162649617" lon="35.4269093648"><ele>872.3</ele><time>2015-11-27T07:59:13Z</time></trkpt><trkpt lat="29.6064546145" lon="35.4256327171"><ele>891.7</ele><time>2015-11-27T08:02:41Z</time></trkpt><trkpt lat="29.6046763938" lon="35.4237331264"><ele>898.8</ele><time>2015-11-27T08:03:37Z</time></trkpt><trkpt lat="29.6038756706" lon="35.4232858680"><ele>900.9</ele><time>2015-11-27T08:03:56Z</time></trkpt><trkpt lat="29.6020193305" lon="35.4228035733"><ele>904.1</ele><time>2015-11-27T08:04:32Z</time></trkpt><trkpt lat="29.5957870502" lon="35.4216601979"><ele>919.9</ele><time>2015-11-27T08:06:45Z</time></trkpt><trkpt lat="29.5790467970" lon="35.4208267014"><ele>948.6</ele><time>2015-11-27T08:13:34Z</time></trkpt><trkpt lat="29.5731757767" lon="35.4182212707"><ele>961.1</ele><time>2015-11-27T08:16:22Z</time></trkpt><trkpt lat="29.5715717319" lon="35.4188259412"><ele>955.3</ele><time>2015-11-27T08:17:04Z</time></trkpt><trkpt lat="29.5717227738" lon="35.4187690280"><ele>955.7</ele><time>2015-11-27T08:17:19Z</time></trkpt><trkpt lat="29.5680733770" lon="35.4181692190"><ele>949.6</ele><time>2015-11-27T08:19:48Z</time></trkpt><trkpt lat="29.5658955909" lon="35.4185067583"><ele>948.2</ele><time>2015-11-27T08:21:09Z</time></trkpt><trkpt lat="29.5649116393" lon="35.4185255338"><ele>950.7</ele><time>2015-11-27T08:21:56Z</time></trkpt><trkpt lat="29.5640726108" lon="35.4182669520"><ele>953.1</ele><time>2015-11-27T08:22:34Z</time></trkpt><trkpt lat="29.5601210464" lon="35.4165812675"><ele>965.8</ele><time>2015-11-27T08:27:43Z</time></trkpt><trkpt lat="29.5575505681" lon="35.4150581919"><ele>973.8</ele><time>2015-11-27T08:30:46Z</time></trkpt><trkpt lat="29.5571902301" lon="35.4146961775"><ele>974.9</ele><time>2015-11-27T08:35:06Z</time></trkpt><trkpt lat="29.5564275607" lon="35.4145474825"><ele>975.7</ele><time>2015-11-27T08:36:28Z</time></trkpt><trkpt lat="29.5547037385" lon="35.4135638662"><ele>976.9</ele><time>2015-11-27T08:38:12Z</time></trkpt><trkpt lat="29.5518769417" lon="35.4131729342"><ele>974.2</ele><time>2015-11-27T08:40:25Z</time></trkpt><trkpt lat="29.5481374394" lon="35.4120137170"><ele>972.8</ele><time>2015-11-27T08:41:53Z</time></trkpt><trkpt lat="29.5422436204" lon="35.4097476695"><ele>982.4</ele><time>2015-11-27T08:45:17Z</time></trkpt><trkpt lat="29.5380671695" lon="35.4076119605"><ele>993.9</ele><time>2015-11-27T08:48:13Z</time></trkpt><trkpt lat="29.5358978491" lon="35.4070605990"><ele>996.3</ele><time>2015-11-27T08:50:22Z</time></trkpt><trkpt lat="29.5303320978" lon="35.4049553163"><ele>1000.4</ele><time>2015-11-27T08:55:10Z</time></trkpt><trkpt lat="29.5276407525" lon="35.4040840175"><ele>1010.5</ele><time>2015-11-27T08:57:07Z</time></trkpt><trkpt lat="29.5254852623" lon="35.4039981030"><ele>1014.7</ele><time>2015-11-27T09:00:22Z</time></trkpt><trkpt lat="29.5241594967" lon="35.4032501858"><ele>1013.9</ele><time>2015-11-27T09:01:22Z</time></trkpt><trkpt lat="29.5218470134" lon="35.4015173111"><ele>1019.4</ele><time>2015-11-27T09:04:18Z</time></trkpt><trkpt lat="29.5193220489" lon="35.4001217242"><ele>1024.6</ele><time>2015-11-27T09:11:56Z</time></trkpt><trkpt lat="29.5188951585" lon="35.4003417492"><ele>1023.2</ele><time>2015-11-27T09:13:30Z</time></trkpt><trkpt lat="29.5180210937" lon="35.4002812319"><ele>1022.9</ele><time>2015-11-27T09:15:35Z</time></trkpt><trkpt lat="29.5166463777" lon="35.3995277826"><ele>1025.4</ele><time>2015-11-27T09:19:19Z</time></trkpt><trkpt lat="29.5158360153" lon="35.3994292952"><ele>1025.1</ele><time>2015-11-27T09:20:55Z</time></trkpt><trkpt lat="29.5141966827" lon="35.3986362834"><ele>1026.0</ele><time>2015-11-27T09:24:19Z</time></trkpt><trkpt lat="29.5129761100" lon="35.3983678110"><ele>1023.9</ele><time>2015-11-27T09:27:54Z</time></trkpt><trkpt lat="29.5103749540" lon="35.3963419050"><ele>1024.2</ele><time>2015-11-27T09:33:06Z</time></trkpt><trkpt lat="29.5074156392" lon="35.3949164785"><ele>1020.7</ele><time>2015-11-27T09:35:09Z</time></trkpt><trkpt lat="29.5056705270" lon="35.3942552302"><ele>1017.8</ele><time>2015-11-27T09:36:06Z</time></trkpt><trkpt lat="29.5043604355" lon="35.3935099952"><ele>1017.5</ele><time>2015-11-27T09:36:50Z</time></trkpt><trkpt lat="29.5026907604" lon="35.3922643606"><ele>1014.2</ele><time>2015-11-27T09:37:58Z</time></trkpt><trkpt lat="29.5014187228" lon="35.3917125799"><ele>1013.0</ele><time>2015-11-27T09:38:49Z</time></trkpt><trkpt lat="29.4998864271" lon="35.3917031083"><ele>1013.7</ele><time>2015-11-27T09:39:45Z</time></trkpt><trkpt lat="29.4995028712" lon="35.3915492166"><ele>1013.0</ele><time>2015-11-27T09:40:00Z</time></trkpt><trkpt lat="29.4993273541" lon="35.3912916407"><ele>1013.2</ele><time>2015-11-27T09:51:31Z</time></trkpt><trkpt lat="29.4987336639" lon="35.3914710972"><ele>1013.7</ele><time>2015-11-27T09:56:43Z</time></trkpt><trkpt lat="29.4980393909" lon="35.3913694248"><ele>1015.0</ele><time>2015-11-27T09:58:16Z</time></trkpt><trkpt lat="29.4979401492" lon="35.3909209929"><ele>1013.6</ele><time>2015-11-27T09:59:13Z</time></trkpt><trkpt lat="29.4968928304" lon="35.3895501327"><ele>1008.6</ele><time>2015-11-27T10:00:11Z</time></trkpt><trkpt lat="29.4968676846" lon="35.3891588654"><ele>1007.3</ele><time>2015-11-27T10:00:26Z</time></trkpt><trkpt lat="29.4965926744" lon="35.3886777442"><ele>1005.9</ele><time>2015-11-27T10:12:27Z</time></trkpt><trkpt lat="29.4953496382" lon="35.3881289810"><ele>1007.7</ele><time>2015-11-27T10:13:46Z</time></trkpt><trkpt lat="29.4931819942" lon="35.3877647035"><ele>1009.6</ele><time>2015-11-27T10:15:47Z</time></trkpt><trkpt lat="29.4914792106" lon="35.3865708690"><ele>1001.1</ele><time>2015-11-27T10:16:21Z</time></trkpt><trkpt lat="29.4897272252" lon="35.3857370373"><ele>996.7</ele><time>2015-11-27T10:17:38Z</time></trkpt><trkpt lat="29.4888286851" lon="35.3850225639"><ele>994.5</ele><time>2015-11-27T10:18:08Z</time></trkpt><trkpt lat="29.4874169212" lon="35.3830504697"><ele>990.4</ele><time>2015-11-27T10:20:15Z</time></trkpt><trkpt lat="29.4863732904" lon="35.3819770832"><ele>987.6</ele><time>2015-11-27T10:22:13Z</time></trkpt><trkpt lat="29.4860531017" lon="35.3813839797"><ele>986.2</ele><time>2015-11-27T10:27:36Z</time></trkpt><trkpt lat="29.4860947598" lon="35.3805115912"><ele>982.3</ele><time>2015-11-27T10:28:38Z</time></trkpt><trkpt lat="29.4858004712" lon="35.3798221797"><ele>979.3</ele><time>2015-11-27T10:29:00Z</time></trkpt><trkpt lat="29.4864481408" lon="35.3788659722"><ele>976.3</ele><time>2015-11-27T10:30:13Z</time></trkpt><trkpt lat="29.4877320807" lon="35.3775578924"><ele>974.1</ele><time>2015-11-27T10:35:00Z</time></trkpt><trkpt lat="29.4878505170" lon="35.3764140978"><ele>971.0</ele><time>2015-11-27T10:36:52Z</time></trkpt><trkpt lat="29.4885335583" lon="35.3756601457"><ele>972.3</ele><time>2015-11-27T10:38:09Z</time></trkpt><trkpt lat="29.4886690937" lon="35.3752885759"><ele>972.3</ele><time>2015-11-27T10:38:51Z</time></trkpt><trkpt lat="29.4872355368" lon="35.3739735391"><ele>967.5</ele><time>2015-11-27T10:40:59Z</time></trkpt><trkpt lat="29.4870245643" lon="35.3730541281"><ele>966.4</ele><time>2015-11-27T10:41:49Z</time></trkpt><trkpt lat="29.4869904500" lon="35.3717033006"><ele>965.4</ele><time>2015-11-27T10:42:21Z</time></trkpt><trkpt lat="29.4866654836" lon="35.3712174855"><ele>964.0</ele><time>2015-11-27T10:42:36Z</time></trkpt><trkpt lat="29.4860176463" lon="35.3707779385"><ele>961.4</ele><time>2015-11-27T10:43:06Z</time></trkpt><trkpt lat="29.4860054925" lon="35.3698986769"><ele>960.4</ele><time>2015-11-27T10:43:44Z</time></trkpt><trkpt lat="29.4863602147" lon="35.3690567985"><ele>960.9</ele><time>2015-11-27T10:45:24Z</time></trkpt><trkpt lat="29.4863873720" lon="35.3686204366"><ele>960.7</ele><time>2015-11-27T10:45:39Z</time></trkpt><trkpt lat="29.4856503513" lon="35.3672406916"><ele>956.4</ele><time>2015-11-27T10:46:26Z</time></trkpt><trkpt lat="29.4853742514" lon="35.3650930803"><ele>951.8</ele><time>2015-11-27T10:47:26Z</time></trkpt><trkpt lat="29.4849445112" lon="35.3637543228"><ele>948.5</ele><time>2015-11-27T10:48:14Z</time></trkpt><trkpt lat="29.4854979683" lon="35.3606680222"><ele>947.7</ele><time>2015-11-27T10:51:31Z</time></trkpt><trkpt lat="29.4858270418" lon="35.3597833961"><ele>947.6</ele><time>2015-11-27T10:52:02Z</time></trkpt><trkpt lat="29.4857253693" lon="35.3588245064"><ele>946.6</ele><time>2015-11-27T10:52:52Z</time></trkpt><trkpt lat="29.4859220088" lon="35.3548886999"><ele>936.9</ele><time>2015-11-27T10:54:58Z</time></trkpt><trkpt lat="29.4858088531" lon="35.3547651507"><ele>936.4</ele><time>2015-11-27T10:55:15Z</time></trkpt><trkpt lat="29.4857705478" lon="35.3529208805"><ele>931.5</ele><time>2015-11-27T10:56:08Z</time></trkpt><trkpt lat="29.4859493338" lon="35.3518847097"><ele>929.5</ele><time>2015-11-27T10:57:59Z</time></trkpt><trkpt lat="29.4859263673" lon="35.3510225471"><ele>928.7</ele><time>2015-11-27T10:59:09Z</time></trkpt><trkpt lat="29.4864538405" lon="35.3502971772"><ele>925.8</ele><time>2015-11-27T11:00:15Z</time></trkpt><trkpt lat="29.4868979976" lon="35.3485588543"><ele>922.3</ele><time>2015-11-27T11:02:06Z</time></trkpt><trkpt lat="29.4873560686" lon="35.3483555932"><ele>921.7</ele><time>2015-11-27T11:03:03Z</time></trkpt><trkpt lat="29.4880077615" lon="35.3473441489"><ele>918.8</ele><time>2015-11-27T11:04:18Z</time></trkpt><trkpt lat="29.4884381723" lon="35.3471618425"><ele>918.7</ele><time>2015-11-27T11:04:38Z</time></trkpt><trkpt lat="29.4893122371" lon="35.3444769513"><ele>913.1</ele><time>2015-11-27T11:05:35Z</time></trkpt><trkpt lat="29.4896592479" lon="35.3432936780"><ele>910.6</ele><time>2015-11-27T11:06:01Z</time></trkpt><trkpt lat="29.4895603415" lon="35.3430385329"><ele>910.2</ele><time>2015-11-27T11:06:27Z</time></trkpt><trkpt lat="29.4898199290" lon="35.3424380533"><ele>908.8</ele><time>2015-11-27T11:07:18Z</time></trkpt><trkpt lat="29.4898202643" lon="35.3393397667"><ele>908.9</ele><time>2015-11-27T11:08:43Z</time></trkpt><trkpt lat="29.4921746571" lon="35.3321791906"><ele>903.7</ele><time>2015-11-27T11:11:38Z</time></trkpt><trkpt lat="29.4925589673" lon="35.3303818591"><ele>901.8</ele><time>2015-11-27T11:13:00Z</time></trkpt><trkpt lat="29.4932736084" lon="35.3286407702"><ele>904.6</ele><time>2015-11-27T11:15:07Z</time></trkpt><trkpt lat="29.4958339445" lon="35.3207852505"><ele>904.7</ele><time>2015-11-27T11:18:54Z</time></trkpt><trkpt lat="29.4969168026" lon="35.3167916089"><ele>902.0</ele><time>2015-11-27T11:20:48Z</time></trkpt><trkpt lat="29.4980158377" lon="35.3147382941"><ele>903.9</ele><time>2015-11-27T11:21:52Z</time></trkpt><trkpt lat="29.4982459210" lon="35.3116563521"><ele>901.9</ele><time>2015-11-27T11:23:26Z</time></trkpt><trkpt lat="29.5014358219" lon="35.3006285336"><ele>909.3</ele><time>2015-11-27T11:29:31Z</time></trkpt><trkpt lat="29.5016987622" lon="35.2972842380"><ele>907.5</ele><time>2015-11-27T11:31:15Z</time></trkpt><trkpt lat="29.5018304419" lon="35.2969021071"><ele>907.4</ele><time>2015-11-27T11:31:25Z</time></trkpt><trkpt lat="29.5017225668" lon="35.2966115903"><ele>909.6</ele><time>2015-11-27T11:54:22Z</time></trkpt><trkpt lat="29.5018201321" lon="35.2967934776"><ele>907.6</ele><time>2015-11-27T11:55:34Z</time></trkpt><trkpt lat="29.5019804779" lon="35.2966627199"><ele>907.2</ele><time>2015-11-27T11:56:55Z</time></trkpt><trkpt lat="29.5021578390" lon="35.2961168066"><ele>906.8</ele><time>2015-11-27T11:57:43Z</time></trkpt><trkpt lat="29.5022316836" lon="35.2918314748"><ele>895.5</ele><time>2015-11-27T11:59:25Z</time></trkpt><trkpt lat="29.5025610924" lon="35.2867686376"><ele>882.9</ele><time>2015-11-27T12:01:28Z</time></trkpt><trkpt lat="29.5025009103" lon="35.2851573844"><ele>877.8</ele><time>2015-11-27T12:02:04Z</time></trkpt><trkpt lat="29.5028674509" lon="35.2812333964"><ele>866.5</ele><time>2015-11-27T12:03:33Z</time></trkpt><trkpt lat="29.5029775053" lon="35.2782042604"><ele>859.1</ele><time>2015-11-27T12:04:40Z</time></trkpt><trkpt lat="29.5032065827" lon="35.2762710582"><ele>854.3</ele><time>2015-11-27T12:05:16Z</time></trkpt><trkpt lat="29.5033571217" lon="35.2761265542"><ele>853.9</ele><time>2015-11-27T12:05:44Z</time></trkpt><trkpt lat="29.5034327265" lon="35.2755633742"><ele>852.7</ele><time>2015-11-27T12:06:23Z</time></trkpt><trkpt lat="29.5036113448" lon="35.2714777831"><ele>845.6</ele><time>2015-11-27T12:09:38Z</time></trkpt><trkpt lat="29.5040250756" lon="35.2703744732"><ele>842.6</ele><time>2015-11-27T12:11:21Z</time></trkpt><trkpt lat="29.5042195357" lon="35.2684729546"><ele>839.2</ele><time>2015-11-27T12:15:33Z</time></trkpt><trkpt lat="29.5040576812" lon="35.2665956598"><ele>834.8</ele><time>2015-11-27T12:17:09Z</time></trkpt><trkpt lat="29.5041194558" lon="35.2639385965"><ele>829.6</ele><time>2015-11-27T12:18:54Z</time></trkpt><trkpt lat="29.5037410129" lon="35.2632324211"><ele>828.0</ele><time>2015-11-27T12:19:19Z</time></trkpt><trkpt lat="29.5031904895" lon="35.2616779972"><ele>824.5</ele><time>2015-11-27T12:19:59Z</time></trkpt><trkpt lat="29.5029936824" lon="35.2604449354"><ele>822.2</ele><time>2015-11-27T12:23:15Z</time></trkpt><trkpt lat="29.5027658623" lon="35.2601203881"><ele>821.4</ele><time>2015-11-27T12:24:19Z</time></trkpt><trkpt lat="29.5025278162" lon="35.2584493719"><ele>819.1</ele><time>2015-11-27T12:25:14Z</time></trkpt><trkpt lat="29.5020098146" lon="35.2570528630"><ele>816.1</ele><time>2015-11-27T12:27:39Z</time></trkpt><trkpt lat="29.5016924758" lon="35.2555338945"><ele>813.3</ele><time>2015-11-27T12:29:54Z</time></trkpt><trkpt lat="29.5017229859" lon="35.2541212924"><ele>809.5</ele><time>2015-11-27T12:31:59Z</time></trkpt><trkpt lat="29.5015048049" lon="35.2533697709"><ele>807.7</ele><time>2015-11-27T12:33:20Z</time></trkpt><trkpt lat="29.5010412019" lon="35.2526374441"><ele>806.3</ele><time>2015-11-27T12:34:40Z</time></trkpt><trkpt lat="29.5006741583" lon="35.2515795641"><ele>805.6</ele><time>2015-11-27T12:35:22Z</time></trkpt><trkpt lat="29.5003631897" lon="35.2500078734"><ele>801.1</ele><time>2015-11-27T12:36:47Z</time></trkpt><trkpt lat="29.4992887136" lon="35.2481888328"><ele>797.0</ele><time>2015-11-27T12:38:32Z</time></trkpt><trkpt lat="29.4994368218" lon="35.2479823865"><ele>796.1</ele><time>2015-11-27T12:38:51Z</time></trkpt><trkpt lat="29.4993172120" lon="35.2475526463"><ele>795.1</ele><time>2015-11-27T12:39:03Z</time></trkpt><trkpt lat="29.4982980564" lon="35.2461878210"><ele>791.7</ele><time>2015-11-27T12:39:52Z</time></trkpt><trkpt lat="29.4952384103" lon="35.2429679129"><ele>782.0</ele><time>2015-11-27T12:43:04Z</time></trkpt><trkpt lat="29.4922465738" lon="35.2410004288"><ele>775.2</ele><time>2015-11-27T12:45:10Z</time></trkpt><trkpt lat="29.4921003096" lon="35.2401252743"><ele>773.2</ele><time>2015-11-27T12:46:17Z</time></trkpt><trkpt lat="29.4912158512" lon="35.2394189313"><ele>771.2</ele><time>2015-11-27T12:46:49Z</time></trkpt><trkpt lat="29.4903881382" lon="35.2384048048"><ele>768.6</ele><time>2015-11-27T12:47:21Z</time></trkpt><trkpt lat="29.4894861616" lon="35.2377141360"><ele>766.0</ele><time>2015-11-27T12:47:44Z</time></trkpt><trkpt lat="29.4888439402" lon="35.2375167422"><ele>764.3</ele><time>2015-11-27T12:48:00Z</time></trkpt><trkpt lat="29.4872743450" lon="35.2362042200"><ele>760.1</ele><time>2015-11-27T12:48:56Z</time></trkpt><trkpt lat="29.4868986681" lon="35.2356233541"><ele>759.3</ele><time>2015-11-27T13:01:43Z</time></trkpt><trkpt lat="29.4860326499" lon="35.2356015611"><ele>757.3</ele><time>2015-11-27T13:04:54Z</time></trkpt><trkpt lat="29.4840758108" lon="35.2350393031"><ele>753.5</ele><time>2015-11-27T13:05:51Z</time></trkpt><trkpt lat="29.4795924146" lon="35.2327129059"><ele>743.3</ele><time>2015-11-27T13:08:03Z</time></trkpt><trkpt lat="29.4789013267" lon="35.2321146894"><ele>741.3</ele><time>2015-11-27T13:08:27Z</time></trkpt><trkpt lat="29.4762516394" lon="35.2313527744"><ele>736.0</ele><time>2015-11-27T13:09:46Z</time></trkpt><trkpt lat="29.4750257023" lon="35.2305846568"><ele>733.6</ele><time>2015-11-27T13:10:24Z</time></trkpt><trkpt lat="29.4727011491" lon="35.2278482169"><ele>726.6</ele><time>2015-11-27T13:11:58Z</time></trkpt><trkpt lat="29.4721720833" lon="35.2267121337"><ele>724.8</ele><time>2015-11-27T13:12:30Z</time></trkpt><trkpt lat="29.4714046363" lon="35.2229259443"><ele>719.1</ele><time>2015-11-27T13:14:14Z</time></trkpt><trkpt lat="29.4704905059" lon="35.2198118996"><ele>714.8</ele><time>2015-11-27T13:15:54Z</time></trkpt><trkpt lat="29.4688418694" lon="35.2177332714"><ele>710.9</ele><time>2015-11-27T13:18:07Z</time></trkpt><trkpt lat="29.4688479882" lon="35.2174679004"><ele>710.5</ele><time>2015-11-27T13:18:28Z</time></trkpt><trkpt lat="29.4684829563" lon="35.2167145349"><ele>711.0</ele><time>2015-11-27T13:19:06Z</time></trkpt><trkpt lat="29.4671819173" lon="35.2147167083"><ele>706.1</ele><time>2015-11-27T13:20:39Z</time></trkpt><trkpt lat="29.4671711884" lon="35.2144585457"><ele>705.8</ele><time>2015-11-27T13:21:32Z</time></trkpt><trkpt lat="29.4666298013" lon="35.2137876581"><ele>704.8</ele><time>2015-11-27T13:22:33Z</time></trkpt><trkpt lat="29.4665020611" lon="35.2129025292"><ele>703.3</ele><time>2015-11-27T13:24:16Z</time></trkpt><trkpt lat="29.4666855410" lon="35.2120660990"><ele>702.8</ele><time>2015-11-27T13:26:09Z</time></trkpt><trkpt lat="29.4671339728" lon="35.2112509590"><ele>701.2</ele><time>2015-11-27T13:27:27Z</time></trkpt><trkpt lat="29.4673152734" lon="35.2101880498"><ele>699.2</ele><time>2015-11-27T13:28:48Z</time></trkpt><trkpt lat="29.4683755841" lon="35.2085795626"><ele>696.0</ele><time>2015-11-27T13:30:28Z</time></trkpt><trkpt lat="29.4687205832" lon="35.2083803248"><ele>695.2</ele><time>2015-11-27T13:31:27Z</time></trkpt><trkpt lat="29.4691328891" lon="35.2078046557"><ele>694.1</ele><time>2015-11-27T13:32:07Z</time></trkpt><trkpt lat="29.4701163378" lon="35.2050777711"><ele>690.3</ele><time>2015-11-27T13:33:33Z</time></trkpt><trkpt lat="29.4702144060" lon="35.2042545844"><ele>689.5</ele><time>2015-11-27T13:34:00Z</time></trkpt><trkpt lat="29.4699444249" lon="35.2029207721"><ele>687.4</ele><time>2015-11-27T13:37:34Z</time></trkpt><trkpt lat="29.4701551460" lon="35.2004834823"><ele>684.2</ele><time>2015-11-27T13:39:10Z</time></trkpt><trkpt lat="29.4709598087" lon="35.1970527694"><ele>679.2</ele><time>2015-11-27T13:41:00Z</time></trkpt><trkpt lat="29.4720863365" lon="35.1936230622"><ele>673.8</ele><time>2015-11-27T13:42:50Z</time></trkpt><trkpt lat="29.4721662998" lon="35.1906385180"><ele>670.0</ele><time>2015-11-27T13:44:25Z</time></trkpt><trkpt lat="29.4725222792" lon="35.1880827080"><ele>666.8</ele><time>2015-11-27T13:45:54Z</time></trkpt><trkpt lat="29.4743250590" lon="35.1844515838"><ele>660.7</ele><time>2015-11-27T13:48:02Z</time></trkpt><trkpt lat="29.4744284078" lon="35.1831189450"><ele>658.8</ele><time>2015-11-27T13:48:45Z</time></trkpt><trkpt lat="29.4748493470" lon="35.1816355996"><ele>657.4</ele><time>2015-11-27T13:50:47Z</time></trkpt><trkpt lat="29.4736013655" lon="35.1816669479"><ele>659.7</ele><time>2015-11-27T14:08:08Z</time></trkpt><trkpt lat="29.4720839895" lon="35.1832395606"><ele>662.9</ele><time>2015-11-27T14:09:12Z</time></trkpt><trkpt lat="29.4709967729" lon="35.1848015282"><ele>666.6</ele><time>2015-11-27T14:09:59Z</time></trkpt><trkpt lat="29.4720813073" lon="35.1832746807"><ele>662.9</ele><time>2015-11-27T14:11:02Z</time></trkpt><trkpt lat="29.4734645728" lon="35.1818320714"><ele>660.0</ele><time>2015-11-27T14:11:41Z</time></trkpt><trkpt lat="29.4738990068" lon="35.1815751661"><ele>659.1</ele><time>2015-11-27T14:11:53Z</time></trkpt><trkpt lat="29.4753188174" lon="35.1816099510"><ele>656.8</ele><time>2015-11-27T14:12:23Z</time></trkpt><trkpt lat="29.4755955040" lon="35.1812519599"><ele>659.0</ele><time>2015-11-27T14:12:34Z</time></trkpt><trkpt lat="29.4757855218" lon="35.1805568486"><ele>658.9</ele><time>2015-11-27T14:12:48Z</time></trkpt><trkpt lat="29.4766418170" lon="35.1787680667"><ele>654.9</ele><time>2015-11-27T14:13:24Z</time></trkpt><trkpt lat="29.4775348250" lon="35.1776602305"><ele>652.0</ele><time>2015-11-27T14:13:48Z</time></trkpt><trkpt lat="29.4776384253" lon="35.1765557472"><ele>652.1</ele><time>2015-11-27T14:14:07Z</time></trkpt><trkpt lat="29.4779136870" lon="35.1757603046"><ele>649.5</ele><time>2015-11-27T14:14:21Z</time></trkpt><trkpt lat="29.4840446301" lon="35.1604500879"><ele>671.4</ele><time>2015-11-27T14:20:47Z</time></trkpt><trkpt lat="29.4842425268" lon="35.1603059191"><ele>672.6</ele><time>2015-11-27T14:21:00Z</time></trkpt><trkpt lat="29.4933233131" lon="35.1650774013"><ele>620.6</ele><time>2015-11-27T14:24:02Z</time></trkpt><trkpt lat="29.4945717137" lon="35.1648584660"><ele>615.7</ele><time>2015-11-27T14:24:15Z</time></trkpt><trkpt lat="29.4958537258" lon="35.1636775397"><ele>611.5</ele><time>2015-11-27T14:24:36Z</time></trkpt><trkpt lat="29.4973597024" lon="35.1613550819"><ele>606.4</ele><time>2015-11-27T14:25:22Z</time></trkpt><trkpt lat="29.5013825968" lon="35.1588805765"><ele>597.7</ele><time>2015-11-27T14:26:45Z</time></trkpt><trkpt lat="29.5025788620" lon="35.1545710210"><ele>589.9</ele><time>2015-11-27T14:27:52Z</time></trkpt><trkpt lat="29.5040190406" lon="35.1501270197"><ele>581.6</ele><time>2015-11-27T14:29:01Z</time></trkpt><trkpt lat="29.5046589989" lon="35.1483214740"><ele>579.1</ele><time>2015-11-27T14:29:30Z</time></trkpt><trkpt lat="29.5060046297" lon="35.1456705295"><ele>571.0</ele><time>2015-11-27T14:30:13Z</time></trkpt><trkpt lat="29.5076557808" lon="35.1436972618"><ele>565.5</ele><time>2015-11-27T14:31:42Z</time></trkpt><trkpt lat="29.5093250368" lon="35.1420321967"><ele>558.5</ele><time>2015-11-27T14:32:24Z</time></trkpt><trkpt lat="29.5125296898" lon="35.1392706111"><ele>549.3</ele><time>2015-11-27T14:33:36Z</time></trkpt><trkpt lat="29.5148042869" lon="35.1358722523"><ele>540.8</ele><time>2015-11-27T14:34:43Z</time></trkpt><trkpt lat="29.5163044799" lon="35.1347319782"><ele>536.1</ele><time>2015-11-27T14:35:17Z</time></trkpt><trkpt lat="29.5176844765" lon="35.1342002302"><ele>532.3</ele><time>2015-11-27T14:35:42Z</time></trkpt><trkpt lat="29.5196237974" lon="35.1345705427"><ele>525.1</ele><time>2015-11-27T14:36:17Z</time></trkpt><trkpt lat="29.5211968292" lon="35.1354223117"><ele>523.6</ele><time>2015-11-27T14:36:47Z</time></trkpt><trkpt lat="29.5218041819" lon="35.1354735252"><ele>522.2</ele><time>2015-11-27T14:36:58Z</time></trkpt><trkpt lat="29.5234282594" lon="35.1335328631"><ele>522.9</ele><time>2015-11-27T14:37:50Z</time></trkpt><trkpt lat="29.5251895487" lon="35.1310361456"><ele>525.6</ele><time>2015-11-27T14:38:49Z</time></trkpt><trkpt lat="29.5253762137" lon="35.1304839458"><ele>529.4</ele><time>2015-11-27T14:39:16Z</time></trkpt><trkpt lat="29.5250237547" lon="35.1289885305"><ele>538.0</ele><time>2015-11-27T14:40:02Z</time></trkpt><trkpt lat="29.5253793150" lon="35.1284717023"><ele>533.9</ele><time>2015-11-27T14:40:18Z</time></trkpt><trkpt lat="29.5261012483" lon="35.1279836241"><ele>527.0</ele><time>2015-11-27T14:40:29Z</time></trkpt><trkpt lat="29.5300183631" lon="35.1264022943"><ele>513.0</ele><time>2015-11-27T14:41:18Z</time></trkpt><trkpt lat="29.5316597074" lon="35.1265681721"><ele>517.2</ele><time>2015-11-27T14:41:43Z</time></trkpt><trkpt lat="29.5321594365" lon="35.1264091674"><ele>519.9</ele><time>2015-11-27T14:42:08Z</time></trkpt><trkpt lat="29.5323405694" lon="35.1259168983"><ele>522.6</ele><time>2015-11-27T14:42:23Z</time></trkpt><trkpt lat="29.5322072133" lon="35.1240725443"><ele>532.0</ele><time>2015-11-27T14:43:36Z</time></trkpt><trkpt lat="29.5323274098" lon="35.1237846259"><ele>532.3</ele><time>2015-11-27T14:44:18Z</time></trkpt><trkpt lat="29.5343294274" lon="35.1273563225"><ele>519.1</ele><time>2015-11-27T14:45:45Z</time></trkpt><trkpt lat="29.5353514329" lon="35.1285184734"><ele>506.8</ele><time>2015-11-27T14:45:58Z</time></trkpt><trkpt lat="29.5369610935" lon="35.1293684822"><ele>495.4</ele><time>2015-11-27T14:46:14Z</time></trkpt><trkpt lat="29.5426109154" lon="35.1302376017"><ele>470.9</ele><time>2015-11-27T14:47:09Z</time></trkpt><trkpt lat="29.5436053444" lon="35.1305867080"><ele>460.0</ele><time>2015-11-27T14:47:19Z</time></trkpt><trkpt lat="29.5474518836" lon="35.1339963824"><ele>445.5</ele><time>2015-11-27T14:48:13Z</time></trkpt><trkpt lat="29.5479405485" lon="35.1343223546"><ele>449.3</ele><time>2015-11-27T14:48:26Z</time></trkpt><trkpt lat="29.5500428975" lon="35.1349657495"><ele>463.3</ele><time>2015-11-27T14:49:45Z</time></trkpt><trkpt lat="29.5506713726" lon="35.1353207231"><ele>466.8</ele><time>2015-11-27T14:50:12Z</time></trkpt><trkpt lat="29.5509615541" lon="35.1357860863"><ele>468.1</ele><time>2015-11-27T14:50:28Z</time></trkpt><trkpt lat="29.5509636495" lon="35.1361651160"><ele>467.2</ele><time>2015-11-27T14:50:38Z</time></trkpt><trkpt lat="29.5507969335" lon="35.1364649367"><ele>466.3</ele><time>2015-11-27T14:50:44Z</time></trkpt><trkpt lat="29.5504509285" lon="35.1366666052"><ele>464.5</ele><time>2015-11-27T14:50:50Z</time></trkpt><trkpt lat="29.5500183385" lon="35.1365624182"><ele>462.4</ele><time>2015-11-27T14:50:57Z</time></trkpt><trkpt lat="29.5492603630" lon="35.1359357033"><ele>460.1</ele><time>2015-11-27T14:51:22Z</time></trkpt><trkpt lat="29.5484892279" lon="35.1347292960"><ele>459.5</ele><time>2015-11-27T14:58:42Z</time></trkpt><trkpt lat="29.5481381100" lon="35.1328750513"><ele>463.1</ele><time>2015-11-27T14:59:18Z</time></trkpt><trkpt lat="29.5483321510" lon="35.1317028422"><ele>464.3</ele><time>2015-11-27T14:59:35Z</time></trkpt><trkpt lat="29.5488328859" lon="35.1308829244"><ele>461.7</ele><time>2015-11-27T14:59:47Z</time></trkpt><trkpt lat="29.5493243169" lon="35.1304774918"><ele>457.9</ele><time>2015-11-27T14:59:54Z</time></trkpt><trkpt lat="29.5536928810" lon="35.1283710357"><ele>434.2</ele><time>2015-11-27T15:00:43Z</time></trkpt><trkpt lat="29.5603492856" lon="35.1243597921"><ele>409.0</ele><time>2015-11-27T15:02:21Z</time></trkpt><trkpt lat="29.5610076841" lon="35.1238733064"><ele>406.1</ele><time>2015-11-27T15:02:36Z</time></trkpt><trkpt lat="29.5616571140" lon="35.1230247226"><ele>396.4</ele><time>2015-11-27T15:02:51Z</time></trkpt><trkpt lat="29.5620968286" lon="35.1218125317"><ele>394.3</ele><time>2015-11-27T15:03:07Z</time></trkpt><trkpt lat="29.5621463656" lon="35.1205326151"><ele>391.2</ele><time>2015-11-27T15:03:24Z</time></trkpt><trkpt lat="29.5614336524" lon="35.1169953682"><ele>380.7</ele><time>2015-11-27T15:04:11Z</time></trkpt><trkpt lat="29.5603849087" lon="35.1148587372"><ele>374.2</ele><time>2015-11-27T15:04:41Z</time></trkpt><trkpt lat="29.5600590203" lon="35.1138398331"><ele>372.4</ele><time>2015-11-27T15:04:55Z</time></trkpt><trkpt lat="29.5601452701" lon="35.1126869023"><ele>370.4</ele><time>2015-11-27T15:05:10Z</time></trkpt><trkpt lat="29.5603256486" lon="35.1121922862"><ele>369.5</ele><time>2015-11-27T15:05:17Z</time></trkpt><trkpt lat="29.5608956181" lon="35.1114089135"><ele>372.8</ele><time>2015-11-27T15:05:32Z</time></trkpt><trkpt lat="29.5622805599" lon="35.1102345251"><ele>370.6</ele><time>2015-11-27T15:06:06Z</time></trkpt><trkpt lat="29.5629237033" lon="35.1093535032"><ele>365.0</ele><time>2015-11-27T15:06:21Z</time></trkpt><trkpt lat="29.5631577261" lon="35.1086785924"><ele>360.7</ele><time>2015-11-27T15:06:29Z</time></trkpt><trkpt lat="29.5631433930" lon="35.1073805708"><ele>352.2</ele><time>2015-11-27T15:06:42Z</time></trkpt><trkpt lat="29.5626312587" lon="35.1063034125"><ele>345.3</ele><time>2015-11-27T15:06:53Z</time></trkpt><trkpt lat="29.5605698135" lon="35.1039216109"><ele>333.7</ele><time>2015-11-27T15:07:18Z</time></trkpt><trkpt lat="29.5601052884" lon="35.1031011064"><ele>331.1</ele><time>2015-11-27T15:07:26Z</time></trkpt><trkpt lat="29.5587494317" lon="35.0977478363"><ele>318.2</ele><time>2015-11-27T15:08:34Z</time></trkpt><trkpt lat="29.5587661117" lon="35.0960554462"><ele>311.3</ele><time>2015-11-27T15:08:50Z</time></trkpt><trkpt lat="29.5602167677" lon="35.0922766328"><ele>299.5</ele><time>2015-11-27T15:09:34Z</time></trkpt><trkpt lat="29.5617057290" lon="35.0890888274"><ele>290.2</ele><time>2015-11-27T15:10:11Z</time></trkpt><trkpt lat="29.5637519192" lon="35.0821961369"><ele>270.1</ele><time>2015-11-27T15:11:34Z</time></trkpt><trkpt lat="29.5643543266" lon="35.0814240798"><ele>269.3</ele><time>2015-11-27T15:11:46Z</time></trkpt><trkpt lat="29.5650767628" lon="35.0809717923"><ele>279.9</ele><time>2015-11-27T15:11:57Z</time></trkpt><trkpt lat="29.5677714609" lon="35.0801119767"><ele>255.0</ele><time>2015-11-27T15:12:48Z</time></trkpt><trkpt lat="29.5684723556" lon="35.0797276665"><ele>251.8</ele><time>2015-11-27T15:13:04Z</time></trkpt><trkpt lat="29.5691879187" lon="35.0789498258"><ele>250.6</ele><time>2015-11-27T15:13:20Z</time></trkpt><trkpt lat="29.5708567556" lon="35.0765277073"><ele>244.8</ele><time>2015-11-27T15:14:39Z</time></trkpt><trkpt lat="29.5714466739" lon="35.0752873532"><ele>236.2</ele><time>2015-11-27T15:15:04Z</time></trkpt><trkpt lat="29.5721079223" lon="35.0730040390"><ele>225.9</ele><time>2015-11-27T15:15:26Z</time></trkpt><trkpt lat="29.5722660050" lon="35.0716995634"><ele>222.0</ele><time>2015-11-27T15:15:39Z</time></trkpt><trkpt lat="29.5723126084" lon="35.0654405449"><ele>206.7</ele><time>2015-11-27T15:16:47Z</time></trkpt><trkpt lat="29.5720667671" lon="35.0640343968"><ele>204.2</ele><time>2015-11-27T15:17:06Z</time></trkpt><trkpt lat="29.5708260778" lon="35.0603347924"><ele>197.2</ele><time>2015-11-27T15:20:31Z</time></trkpt><trkpt lat="29.5666598529" lon="35.0492459536"><ele>164.3</ele><time>2015-11-27T15:22:44Z</time></trkpt><trkpt lat="29.5643236488" lon="35.0438139774"><ele>133.8</ele><time>2015-11-27T15:23:35Z</time></trkpt><trkpt lat="29.5629698038" lon="35.0415131450"><ele>134.4</ele><time>2015-11-27T15:24:02Z</time></trkpt><trkpt lat="29.5609854721" lon="35.0390338618"><ele>127.4</ele><time>2015-11-27T15:24:57Z</time></trkpt><trkpt lat="29.5441098511" lon="35.0199150760"><ele>76.1</ele><time>2015-11-27T15:31:41Z</time></trkpt><trkpt lat="29.5398928318" lon="35.0150361378"><ele>46.2</ele><time>2015-11-27T15:32:32Z</time></trkpt><trkpt lat="29.5392414741" lon="35.0140653457"><ele>40.5</ele><time>2015-11-27T15:32:53Z</time></trkpt><trkpt lat="29.5383106638" lon="35.0132577494"><ele>36.3</ele><time>2015-11-27T15:33:11Z</time></trkpt><trkpt lat="29.5330990478" lon="35.0072901696"><ele>15.6</ele><time>2015-11-27T15:35:20Z</time></trkpt><trkpt lat="29.5326455869" lon="35.0066216290"><ele>13.5</ele><time>2015-11-27T15:35:35Z</time></trkpt><trkpt lat="29.5324056968" lon="35.0058891345"><ele>13.8</ele><time>2015-11-27T15:36:16Z</time></trkpt><trkpt lat="29.5320662297" lon="35.0057291240"><ele>14.8</ele><time>2015-11-27T15:36:25Z</time></trkpt><trkpt lat="29.5316835120" lon="35.0059084967"><ele>20.2</ele><time>2015-11-27T15:36:37Z</time></trkpt><trkpt lat="29.5314771496" lon="35.0063305255"><ele>24.9</ele><time>2015-11-27T15:37:01Z</time></trkpt><trkpt lat="29.5310239401" lon="35.0065796357"><ele>30.0</ele><time>2015-11-27T15:38:15Z</time></trkpt><trkpt lat="29.5307799429" lon="35.0064826570"><ele>26.6</ele><time>2015-11-27T15:38:45Z</time></trkpt><trkpt lat="29.5294956677" lon="35.0050376169"><ele>24.3</ele><time>2015-11-27T15:44:56Z</time></trkpt><trkpt lat="29.5296647307" lon="35.0047469325"><ele>25.8</ele><time>2015-11-27T15:45:51Z</time></trkpt><trkpt lat="29.5297910459" lon="35.0047398079"><ele>23.6</ele><time>2015-11-27T15:46:27Z</time></trkpt><trkpt lat="29.5301508810" lon="35.0052648503"><ele>24.7</ele><time>2015-11-27T15:49:12Z</time></trkpt><trkpt lat="29.5298181195" lon="35.0057385117"><ele>25.2</ele><time>2015-11-27T15:51:24Z</time></trkpt><trkpt lat="29.5299326163" lon="35.0056806765"><ele>25.8</ele><time>2015-11-27T15:52:21Z</time></trkpt><trkpt lat="29.5296680834" lon="35.0058758911"><ele>24.2</ele><time>2015-11-27T15:53:58Z</time></trkpt><trkpt lat="29.5292418636" lon="35.0053903274"><ele>23.7</ele><time>2015-11-27T15:55:17Z</time></trkpt><trkpt lat="29.5293280296" lon="35.0053327437"><ele>22.2</ele><time>2015-11-27T15:59:51Z</time></trkpt><trkpt lat="29.5292007923" lon="35.0053751562"><ele>24.0</ele><time>2015-11-27T16:06:05Z</time></trkpt><trkpt lat="29.5294986013" lon="35.0050684623"><ele>24.4</ele><time>2015-11-27T16:07:27Z</time></trkpt><trkpt lat="29.5300979912" lon="35.0056391023"><ele>25.5</ele><time>2015-11-27T16:08:46Z</time></trkpt><trkpt lat="29.5303121489" lon="35.0054047443"><ele>26.7</ele><time>2015-11-27T16:09:56Z</time></trkpt><trkpt lat="29.5305714011" lon="35.0057149585"><ele>30.0</ele><time>2015-11-27T16:10:33Z</time></trkpt><trkpt lat="29.5306691341" lon="35.0056503341"><ele>30.1</ele><time>2015-11-27T16:12:41Z</time></trkpt><trkpt lat="29.5307346806" lon="35.0061415136"><ele>28.8</ele><time>2015-11-27T16:13:31Z</time></trkpt><trkpt lat="29.5304019190" lon="35.0063810684"><ele>24.7</ele><time>2015-11-27T16:14:49Z</time></trkpt></trkseg></trk></gpx>